Time;durP1;ratioP1;P1;durP2;ratioP2;P2;SDS_P1;SDS_P2;PMS_P1;PMS_P2;Temp;Humidity;BMP_temperature;BMP_pressure;BME280_temperature;BME280_humidity;BME280_pressure;Samples;Min_cycle;Max_cycle;Signal;HPM_P1;HPM_P2
2022/11/13 00:02:34;;;;;;;13.40;12.30;;;8.30;99.90;;;;;;10417064;28;20216;-80
2022/11/13 00:07:55;;;;;;;10.13;9.33;;;8.30;99.90;;;;;;10455782;28;20575;-80
2022/11/13 00:13:15;;;;;;;10.63;9.77;;;8.20;99.90;;;;;;10428860;28;20258;-80
2022/11/13 00:18:38;;;;;;;10.67;9.90;;;8.20;99.90;;;;;;10451777;28;20559;-80
2022/11/13 00:23:59;;;;;;;11.63;10.73;;;8.20;99.90;;;;;;10405337;28;20350;-79
2022/11/13 00:29:19;;;;;;;11.37;10.47;;;8.20;99.90;;;;;;10429513;28;20209;-80
2022/11/13 00:34:41;;;;;;;9.93;9.23;;;8.20;99.90;;;;;;10441217;28;20225;-80
2022/11/13 00:40:01;;;;;;;10.53;9.83;;;8.10;99.90;;;;;;10419190;28;20189;-80
2022/11/13 00:45:22;;;;;;;11.17;10.27;;;8.10;99.90;;;;;;10432845;28;20212;-80
2022/11/13 00:50:44;;;;;;;12.03;10.93;;;8.10;99.90;;;;;;10434230;28;20232;-80
2022/11/13 00:56:06;;;;;;;10.50;9.70;;;8.00;99.90;;;;;;10437272;28;20247;-80
2022/11/13 01:01:26;;;;;;;10.73;9.90;;;8.00;99.90;;;;;;10435218;28;20217;-80
2022/11/13 01:06:48;;;;;;;10.27;9.53;;;8.00;99.90;;;;;;10447132;28;20220;-80
2022/11/13 01:12:08;;;;;;;10.27;9.47;;;7.90;99.90;;;;;;10424650;28;20340;-80
2022/11/13 01:17:29;;;;;;;10.40;9.50;;;7.90;99.90;;;;;;10444930;28;20199;-80
2022/11/13 01:22:51;;;;;;;11.53;10.63;;;7.80;99.90;;;;;;10422200;28;20700;-80
2022/11/13 01:28:11;;;;;;;10.80;10.10;;;7.80;99.90;;;;;;10451817;28;20224;-80
2022/11/13 01:33:31;;;;;;;10.27;9.50;;;7.80;99.90;;;;;;10418817;28;20221;-80
2022/11/13 01:38:54;;;;;;;10.40;9.60;;;7.90;99.90;;;;;;10429018;28;20235;-80
2022/11/13 01:44:17;;;;;;;10.17;9.47;;;7.80;99.90;;;;;;10378302;28;20268;-80
2022/11/13 01:49:41;;;;;;;11.03;10.17;;;7.90;99.90;;;;;;10461184;28;20213;-81
2022/11/13 01:55:08;;;;;;;10.10;9.30;;;7.90;99.90;;;;;;10433982;28;20213;-80
2022/11/13 02:00:29;;;;;;;10.30;9.60;;;7.80;99.90;;;;;;10452640;28;20701;-80
2022/11/13 02:05:50;;;;;;;9.83;9.13;;;7.80;99.90;;;;;;10429445;28;20204;-79
2022/11/13 02:11:13;;;;;;;11.47;10.53;;;7.80;99.90;;;;;;10439281;28;20232;-79
2022/11/13 02:16:35;;;;;;;13.90;12.70;;;7.80;99.90;;;;;;10446652;28;20235;-80
2022/11/13 02:22:04;;;;;;;20.90;19.10;;;7.80;99.90;;;;;;10420165;28;20252;-80
2022/11/13 02:27:34;;;;;;;20.60;18.90;;;7.80;99.90;;;;;;10450526;28;20231;-80
2022/11/13 02:33:19;;;;;;;21.43;19.63;;;7.80;99.90;;;;;;10435475;28;20589;-80
2022/11/13 02:38:47;;;;;;;22.00;20.10;;;7.80;99.90;;;;;;10453382;28;20650;-79
2022/11/13 02:44:19;;;;;;;13.73;12.53;;;7.80;99.90;;;;;;10436723;28;20634;-80
2022/11/13 02:49:43;;;;;;;12.60;11.60;;;7.80;99.90;;;;;;10457286;28;20213;-80
2022/11/13 02:55:07;;;;;;;12.47;11.57;;;7.80;99.90;;;;;;10421738;28;20186;-80
2022/11/13 03:00:45;;;;;;;12.23;11.43;;;7.70;99.90;;;;;;10383955;28;20214;-82
2022/11/13 03:06:35;;;;;;;12.83;11.63;;;7.70;99.90;;;;;;10438174;28;20590;-82
2022/11/13 03:11:56;;;;;;;13.63;12.47;;;7.60;99.90;;;;;;10431072;28;20209;-80
2022/11/13 03:17:18;;;;;;;12.17;11.30;;;7.60;99.90;;;;;;10450312;28;20190;-80
2022/11/13 03:22:38;;;;;;;14.03;12.87;;;7.60;99.90;;;;;;10433336;28;20595;-80
2022/11/13 03:27:59;;;;;;;18.80;17.30;;;7.60;99.90;;;;;;10439368;28;20241;-79
2022/11/13 03:33:20;;;;;;;19.90;18.20;;;7.70;99.90;;;;;;10435809;28;20239;-81
2022/11/13 03:38:41;;;;;;;19.60;18.00;;;7.70;99.90;;;;;;10435930;28;20240;-80
2022/11/13 03:44:02;;;;;;;19.83;18.00;;;7.80;99.90;;;;;;10407954;28;20217;-81
2022/11/13 03:49:23;;;;;;;18.97;17.43;;;7.80;99.90;;;;;;10416015;28;20691;-81
2022/11/13 03:54:44;;;;;;;21.40;18.83;;;7.80;99.90;;;;;;10426660;28;20213;-80
2022/11/13 04:00:06;;;;;;;19.83;18.03;;;7.80;99.90;;;;;;10426425;28;20182;-80
2022/11/13 04:05:28;;;;;;;21.37;19.57;;;7.80;99.90;;;;;;10448766;28;20661;-81
2022/11/13 04:10:49;;;;;;;19.30;17.30;;;7.80;99.90;;;;;;10458217;28;20216;-80
2022/11/13 04:16:09;;;;;;;21.33;19.50;;;7.80;99.90;;;;;;10422405;28;20674;-81
2022/11/13 04:21:31;;;;;;;18.60;17.10;;;7.80;99.90;;;;;;10454270;28;20574;-81
2022/11/13 04:26:52;;;;;;;21.97;20.10;;;7.80;99.90;;;;;;10414563;28;20209;-80
2022/11/13 04:32:12;;;;;;;22.07;20.23;;;7.80;99.90;;;;;;10452714;28;20215;-81
2022/11/13 04:37:34;;;;;;;21.37;19.60;;;7.80;99.90;;;;;;10419034;28;20188;-81
2022/11/13 04:42:55;;;;;;;18.17;16.67;;;7.80;99.90;;;;;;10427958;28;20213;-80
2022/11/13 04:48:15;;;;;;;19.10;17.30;;;7.80;99.90;;;;;;10450031;28;20288;-81
2022/11/13 04:53:37;;;;;;;17.53;16.00;;;7.80;99.90;;;;;;10429109;28;20224;-80
2022/11/13 04:58:57;;;;;;;18.60;16.93;;;7.70;99.90;;;;;;10448271;28;20197;-81
2022/11/13 05:04:18;;;;;;;15.67;14.30;;;7.70;99.90;;;;;;10435213;28;20213;-81
2022/11/13 05:09:40;;;;;;;16.23;14.90;;;7.70;99.90;;;;;;10440616;28;20298;-81
2022/11/13 05:15:00;;;;;;;18.23;16.53;;;7.60;99.90;;;;;;10439283;28;20382;-82
2022/11/13 05:20:21;;;;;;;18.60;16.80;;;7.50;99.90;;;;;;10438355;28;20769;-81
2022/11/13 05:25:43;;;;;;;22.37;16.43;;;7.40;99.90;;;;;;10426199;28;20661;-82
2022/11/13 05:31:08;;;;;;;18.73;17.23;;;7.40;99.90;;;;;;10430170;28;20228;-81
2022/11/13 05:36:29;;;;;;;19.23;17.60;;;7.40;99.90;;;;;;10447511;28;20647;-82
2022/11/13 05:41:51;;;;;;;20.03;18.17;;;7.40;99.90;;;;;;10453379;28;20244;-82
2022/11/13 05:47:11;;;;;;;19.37;17.70;;;7.50;99.90;;;;;;10424243;28;20344;-82
2022/11/13 05:52:32;;;;;;;18.57;16.97;;;7.60;99.90;;;;;;10452550;28;20684;-81
2022/11/13 05:57:53;;;;;;;21.13;19.10;;;7.70;99.90;;;;;;10429298;28;20197;-82
2022/11/13 06:03:14;;;;;;;21.43;19.23;;;7.70;99.90;;;;;;10455959;28;20217;-81
2022/11/13 06:08:35;;;;;;;19.27;17.57;;;7.70;99.90;;;;;;10401983;28;20371;-80
2022/11/13 06:13:59;;;;;;;20.97;19.17;;;7.70;99.90;;;;;;10465962;28;20241;-79
2022/11/13 06:19:19;;;;;;;21.57;19.47;;;7.80;99.90;;;;;;10436957;28;20201;-80
2022/11/13 06:24:40;;;;;;;20.57;18.77;;;7.80;99.90;;;;;;10450682;28;20230;-80
2022/11/13 06:30:02;;;;;;;21.30;19.40;;;7.80;99.90;;;;;;10409105;28;20221;-80
2022/11/13 06:35:23;;;;;;;20.00;18.40;;;7.90;99.90;;;;;;10451994;28;20190;-81
2022/11/13 06:40:43;;;;;;;18.00;16.50;;;7.90;99.90;;;;;;10427146;28;20217;-81
2022/11/13 06:46:07;;;;;;;18.10;16.60;;;7.80;99.90;;;;;;10421536;28;20193;-80
2022/11/13 06:51:29;;;;;;;16.50;15.10;;;7.80;99.90;;;;;;10445827;28;20244;-81
2022/11/13 06:56:50;;;;;;;15.33;14.13;;;7.90;99.90;;;;;;10444327;28;20192;-80
2022/11/13 07:02:12;;;;;;;14.30;13.20;;;7.80;99.90;;;;;;10440745;28;20217;-80
2022/11/13 07:07:32;;;;;;;13.43;12.47;;;7.80;99.90;;;;;;10449552;28;20296;-80
2022/11/13 07:12:53;;;;;;;13.93;12.93;;;7.90;99.90;;;;;;10437900;28;20704;-80
2022/11/13 07:18:15;;;;;;;12.80;11.90;;;7.90;99.90;;;;;;10455009;28;20185;-80
2022/11/13 07:23:41;;;;;;;14.97;13.87;;;7.90;99.90;;;;;;10473544;22;20252;-81
2022/11/13 07:29:02;;;;;;;14.63;13.53;;;7.90;99.90;;;;;;10479830;28;20257;-84
2022/11/13 07:34:24;;;;;;;13.90;12.90;;;7.90;99.90;;;;;;10440771;28;20308;-84
2022/11/13 07:39:45;;;;;;;13.73;12.60;;;7.90;99.90;;;;;;10462839;28;20599;-85
2022/11/13 07:45:06;;;;;;;14.50;13.40;;;7.90;99.90;;;;;;10427421;28;20217;-85
2022/11/13 07:50:30;;;;;;;14.67;13.57;;;7.80;99.90;;;;;;10448337;28;20229;-85
2022/11/13 07:55:50;;;;;;;14.57;13.47;;;7.80;99.90;;;;;;10465314;28;20192;-84
2022/11/13 08:01:11;;;;;;;15.40;14.20;;;7.80;99.90;;;;;;10448529;28;20213;-84
2022/11/13 08:06:36;;;;;;;15.27;14.10;;;7.80;99.90;;;;;;10449848;28;20734;-84
2022/11/13 08:11:56;;;;;;;15.03;13.87;;;7.80;99.90;;;;;;10470586;28;20673;-85
2022/11/13 08:17:16;;;;;;;15.00;13.87;;;7.80;99.90;;;;;;10472002;28;20197;-83
2022/11/13 08:22:38;;;;;;;14.93;13.73;;;7.80;99.90;;;;;;10452883;28;20726;-82
2022/11/13 08:27:59;;;;;;;13.13;12.13;;;7.80;99.90;;;;;;10450449;28;20311;-84
2022/11/13 08:33:19;;;;;;;14.60;13.50;;;7.90;99.90;;;;;;10449627;28;20308;-83
2022/11/13 08:38:42;;;;;;;14.20;13.20;;;7.90;99.90;;;;;;10454097;28;20220;-84
2022/11/13 08:44:02;;;;;;;13.33;12.43;;;8.00;99.90;;;;;;10445562;28;20208;-84
2022/11/13 08:49:23;;;;;;;13.30;12.37;;;8.10;99.90;;;;;;10454605;28;20291;-83
2022/11/13 08:54:45;;;;;;;14.03;12.93;;;8.10;99.90;;;;;;10455449;28;20201;-83
2022/11/13 09:00:07;;;;;;;12.33;11.43;;;8.10;99.90;;;;;;10438375;28;20207;-85
2022/11/13 09:05:28;;;;;;;12.67;11.77;;;8.20;99.90;;;;;;10442667;28;20203;-85
2022/11/13 09:10:50;;;;;;;14.10;12.90;;;8.20;99.90;;;;;;10438185;28;20212;-83
2022/11/13 09:16:10;;;;;;;12.57;11.70;;;8.30;99.90;;;;;;10439209;28;20284;-84
2022/11/13 09:21:31;;;;;;;14.10;13.10;;;8.30;99.90;;;;;;10415731;28;20252;-83
2022/11/13 09:26:53;;;;;;;13.87;12.77;;;8.30;99.90;;;;;;10456779;28;20645;-83
2022/11/13 09:32:16;;;;;;;14.60;13.60;;;8.30;99.90;;;;;;10456421;28;20223;-84
2022/11/13 09:37:39;;;;;;;14.40;13.30;;;8.20;99.90;;;;;;10462545;28;20197;-82
2022/11/13 09:43:03;;;;;;;15.63;14.43;;;8.20;99.90;;;;;;10440339;28;20688;-80
2022/11/13 09:48:32;;;;;;;15.70;14.40;;;8.20;99.90;;;;;;10456363;28;20571;-83
2022/11/13 09:53:57;;;;;;;14.83;13.73;;;8.10;99.90;;;;;;10460467;28;20570;-86
2022/11/13 09:59:28;;;;;;;15.73;14.53;;;8.10;99.90;;;;;;10446437;28;20694;-85
2022/11/13 10:04:57;;;;;;;15.87;14.73;;;8.10;99.90;;;;;;10459305;28;20292;-85
2022/11/13 10:10:45;;;;;;;18.00;16.70;;;8.20;99.90;;;;;;10465658;28;20220;-81
2022/11/13 10:16:19;;;;;;;17.80;16.50;;;8.20;99.90;;;;;;10461060;28;20201;-83
2022/11/13 10:21:45;;;;;;;16.90;15.60;;;8.20;99.90;;;;;;10462639;28;20225;-83
2022/11/13 10:27:09;;;;;;;16.73;15.43;;;8.30;99.90;;;;;;10444567;28;20685;-83
2022/11/13 10:32:33;;;;;;;15.40;14.20;;;8.30;99.90;;;;;;10465327;28;20217;-86
2022/11/13 10:38:01;;;;;;;16.77;15.53;;;8.40;99.90;;;;;;10450794;28;20201;-84
2022/11/13 10:43:23;;;;;;;16.73;15.53;;;8.40;99.90;;;;;;10454237;28;20221;-85
2022/11/13 10:48:45;;;;;;;17.60;16.20;;;8.50;99.90;;;;;;10445470;28;20224;-85
2022/11/13 10:54:22;;;;;;;16.10;14.87;;;8.60;99.90;;;;;;10463868;28;20213;-81
2022/11/13 10:59:45;;;;;;;16.10;14.90;;;8.60;99.90;;;;;;10461186;28;20201;-84
2022/11/13 11:05:17;;;;;;;17.00;15.70;;;8.70;99.90;;;;;;10452042;28;20217;-81
2022/11/13 11:12:14;;;;;;;16.10;14.90;;;8.70;99.90;;;;;;10466457;28;20223;-85
2022/11/13 11:16:23;;;;;;;15.20;14.10;;;8.80;99.90;;;;;;10448659;28;20640;-83
2022/11/13 11:21:47;;;;;;;16.80;15.50;;;8.80;99.90;;;;;;10468629;28;20379;-83
2022/11/13 11:27:14;;;;;;;16.90;15.60;;;8.90;99.90;;;;;;10460061;28;20291;-83
2022/11/13 11:32:42;;;;;;;16.80;15.50;;;9.00;99.90;;;;;;10463417;28;20220;-84
2022/11/13 11:38:15;;;;;;;17.17;15.80;;;9.10;99.90;;;;;;10468705;28;20247;-82
2022/11/13 11:43:42;;;;;;;16.03;14.83;;;9.10;99.90;;;;;;10458993;28;20217;-83
2022/11/13 11:49:03;;;;;;;14.37;13.20;;;9.20;99.90;;;;;;10458693;28;20227;-83
2022/11/13 11:54:40;;;;;;;15.93;14.63;;;9.30;99.90;;;;;;10460212;28;20728;-82
2022/11/13 12:00:05;;;;;;;17.40;16.10;;;9.40;99.90;;;;;;10440364;28;20257;-82
2022/11/13 12:05:29;;;;;;;18.23;16.77;;;9.40;99.90;;;;;;10454084;28;20216;-85
2022/11/13 12:10:59;;;;;;;17.30;16.00;;;9.50;99.90;;;;;;10468061;28;20219;-79
2022/11/13 12:16:27;;;;;;;18.20;16.70;;;9.60;99.90;;;;;;10451973;28;20181;-79
2022/11/13 12:21:55;;;;;;;17.20;15.90;;;9.60;99.90;;;;;;10455628;28;20217;-79
2022/11/13 12:27:29;;;;;;;18.33;16.83;;;9.70;99.90;;;;;;10456521;28;20807;-81
2022/11/13 12:33:08;;;;;;;16.73;15.33;;;9.80;99.90;;;;;;10431477;28;20228;-81
2022/11/13 12:38:36;;;;;;;16.57;15.23;;;9.80;99.90;;;;;;10435446;28;20791;-78
2022/11/13 12:44:14;;;;;;;17.30;15.80;;;9.90;99.90;;;;;;10437189;28;20213;-81
2022/11/13 12:49:36;;;;;;;15.13;13.97;;;10.00;99.90;;;;;;10438146;28;20212;-81
2022/11/13 12:55:06;;;;;;;16.67;15.27;;;10.00;99.90;;;;;;10415189;28;20233;-78
2022/11/13 13:00:30;;;;;;;15.60;14.40;;;10.10;99.90;;;;;;10417314;28;20193;-81
2022/11/13 13:06:04;;;;;;;14.47;13.37;;;10.10;99.90;;;;;;10438890;28;20185;-81
2022/11/13 13:11:34;;;;;;;15.93;14.63;;;10.20;99.90;;;;;;10462079;28;20590;-83
2022/11/13 13:17:06;;;;;;;17.63;16.23;;;10.20;99.90;;;;;;10449527;28;20208;-83
2022/11/13 13:22:30;;;;;;;21.20;19.30;;;10.30;99.90;;;;;;10469919;23;20230;-80
2022/11/13 13:27:57;;;;;;;16.90;15.40;;;10.30;99.90;;;;;;10430749;28;20208;-80
2022/11/13 13:33:25;;;;;;;17.13;15.73;;;10.40;99.90;;;;;;10435245;28;20241;-79
2022/11/13 13:38:50;;;;;;;17.17;15.83;;;10.40;99.90;;;;;;10438344;28;20189;-79
2022/11/13 13:44:31;;;;;;;16.43;15.13;;;10.50;99.90;;;;;;10440989;28;20616;-80
2022/11/13 13:49:53;;;;;;;18.90;17.30;;;10.50;99.90;;;;;;10413290;28;20214;-80
2022/11/13 13:55:19;;;;;;;20.53;18.73;;;10.50;99.90;;;;;;10448556;28;20261;-79
2022/11/13 14:00:39;;;;;;;29.17;26.37;;;10.50;99.90;;;;;;10413474;28;20276;-80
2022/11/13 14:06:17;;;;;;;17.37;15.87;;;10.50;99.90;;;;;;10453702;28;20197;-79
2022/11/13 14:11:37;;;;;;;19.43;17.73;;;10.40;99.90;;;;;;10375459;28;20222;-79
2022/11/13 14:17:00;;;;;;;19.57;17.97;;;10.40;99.90;;;;;;10451565;28;20709;-78
2022/11/13 14:22:23;;;;;;;17.97;16.53;;;10.40;99.90;;;;;;10420045;28;20331;-80
2022/11/13 14:27:43;;;;;;;16.97;15.67;;;10.40;99.90;;;;;;10428534;28;20325;-80
2022/11/13 14:33:08;;;;;;;17.40;15.90;;;10.30;99.90;;;;;;10424089;28;20217;-80
2022/11/13 14:38:34;;;;;;;18.10;16.70;;;10.30;99.90;;;;;;10441106;28;20580;-80
2022/11/13 14:43:55;;;;;;;20.03;18.43;;;10.30;99.90;;;;;;10386802;28;20213;-80
2022/11/13 14:49:27;;;;;;;17.00;15.57;;;10.20;99.90;;;;;;10436334;28;20224;-79
2022/11/13 14:54:49;;;;;;;16.90;15.40;;;10.20;99.90;;;;;;10437983;28;20216;-79
2022/11/13 15:00:12;;;;;;;17.90;16.30;;;10.10;99.90;;;;;;10437710;28;20304;-80
2022/11/13 15:05:33;;;;;;;18.60;16.90;;;10.10;99.90;;;;;;10436907;28;20210;-79
2022/11/13 15:10:57;;;;;;;31.43;23.53;;;10.00;99.90;;;;;;10438582;28;20296;-80
2022/11/13 15:16:21;;;;;;;20.20;18.10;;;9.90;99.90;;;;;;10429583;28;20634;-79
2022/11/13 15:21:42;;;;;;;21.90;19.60;;;9.80;99.90;;;;;;10413121;28;20218;-80
2022/11/13 15:27:04;;;;;;;21.60;19.50;;;9.70;99.90;;;;;;10438808;28;20280;-80
2022/11/13 15:32:31;;;;;;;23.87;21.27;;;9.60;99.90;;;;;;10424916;28;20297;-79
2022/11/13 15:37:53;;;;;;;25.00;22.60;;;9.60;99.90;;;;;;10421457;28;20206;-80
2022/11/13 15:43:19;;;;;;;19.60;17.90;;;9.50;99.90;;;;;;10425540;28;20228;-79
2022/11/13 15:48:39;;;;;;;17.47;16.07;;;9.50;99.90;;;;;;10436801;28;20217;-78
2022/11/13 15:54:14;;;;;;;16.50;15.20;;;9.40;99.90;;;;;;10430858;28;20735;-78
2022/11/13 15:59:36;;;;;;;18.23;16.67;;;9.30;99.90;;;;;;10420397;28;20205;-78
2022/11/13 16:04:57;;;;;;;17.10;15.60;;;9.20;99.90;;;;;;10432503;28;20305;-78
2022/11/13 16:10:19;;;;;;;16.60;15.27;;;9.20;99.90;;;;;;10407153;28;20209;-78
2022/11/13 16:15:41;;;;;;;17.83;16.30;;;9.10;99.90;;;;;;10438625;28;20422;-77
2022/11/13 16:21:01;;;;;;;17.77;16.00;;;9.00;99.90;;;;;;10417300;28;20301;-79
2022/11/13 16:26:24;;;;;;;18.17;16.37;;;9.00;99.90;;;;;;10410651;28;20194;-78
2022/11/13 16:31:46;;;;;;;17.87;16.33;;;8.90;99.90;;;;;;10416760;28;20639;-78
2022/11/13 16:37:13;;;;;;;19.40;17.50;;;8.90;99.90;;;;;;10420711;28;20207;-78
2022/11/13 16:42:35;;;;;;;22.20;19.90;;;8.90;99.90;;;;;;10428949;28;20222;-78
2022/11/13 16:47:57;;;;;;;18.43;16.83;;;8.90;99.90;;;;;;10420073;28;20206;-79
2022/11/13 16:53:17;;;;;;;23.70;21.73;;;8.90;99.90;;;;;;10427581;28;20221;-80
2022/11/13 16:58:37;;;;;;;18.47;17.00;;;8.80;99.90;;;;;;10418120;28;20205;-79
2022/11/13 17:03:59;;;;;;;18.47;16.93;;;8.80;99.90;;;;;;10425892;28;20213;-80
2022/11/13 17:09:20;;;;;;;19.70;18.00;;;8.80;99.90;;;;;;10413164;28;20618;-79
2022/11/13 17:14:40;;;;;;;20.13;18.37;;;8.70;99.90;;;;;;10424598;28;20281;-78
2022/11/13 17:20:03;;;;;;;17.10;15.80;;;8.70;99.90;;;;;;10417677;28;20194;-80
2022/11/13 17:25:25;;;;;;;17.70;16.40;;;8.60;99.90;;;;;;10415168;28;20232;-79
2022/11/13 17:30:45;;;;;;;19.57;17.77;;;8.60;99.90;;;;;;10416906;28;20220;-80
2022/11/13 17:36:09;;;;;;;17.57;16.13;;;8.50;99.90;;;;;;10419417;28;20193;-80
2022/11/13 17:41:29;;;;;;;19.27;17.80;;;8.50;99.90;;;;;;10404282;28;20581;-79
2022/11/13 17:46:50;;;;;;;16.53;15.20;;;8.40;99.90;;;;;;10423614;28;20247;-79
2022/11/13 17:52:12;;;;;;;19.60;18.00;;;8.40;99.90;;;;;;10417215;28;20228;-79
2022/11/13 17:57:36;;;;;;;23.37;21.27;;;8.50;99.90;;;;;;10415193;28;20260;-80
2022/11/13 18:02:57;;;;;;;24.00;21.70;;;8.50;99.90;;;;;;10427748;28;20725;-79
2022/11/13 18:08:19;;;;;;;20.07;18.27;;;8.50;99.90;;;;;;10398106;28;20243;-78
2022/11/13 18:13:41;;;;;;;19.70;17.90;;;8.50;99.90;;;;;;10425320;28;20244;-79
2022/11/13 18:19:05;;;;;;;20.93;18.93;;;8.50;99.90;;;;;;10433494;28;20213;-79
2022/11/13 18:24:27;;;;;;;20.10;18.40;;;8.50;99.90;;;;;;10443786;28;20305;-79
2022/11/13 18:29:48;;;;;;;19.63;17.83;;;8.50;99.90;;;;;;10427133;28;20302;-79
2022/11/13 18:35:09;;;;;;;20.00;18.10;;;8.50;99.90;;;;;;10432173;28;20237;-79
2022/11/13 18:40:31;;;;;;;20.70;19.03;;;8.50;99.90;;;;;;10423670;28;20194;-80
2022/11/13 18:45:56;;;;;;;22.33;20.23;;;8.50;99.90;;;;;;10430623;28;20201;-79
2022/11/13 18:51:20;;;;;;;22.43;20.53;;;8.50;99.90;;;;;;10416467;28;20232;-79
2022/11/13 18:56:42;;;;;;;25.13;22.93;;;8.40;99.90;;;;;;10425445;28;20185;-79
2022/11/13 19:02:03;;;;;;;25.77;23.37;;;8.50;99.90;;;;;;10423328;28;20236;-79
2022/11/13 19:07:23;;;;;;;28.70;25.90;;;8.50;99.90;;;;;;10418741;28;20198;-78
2022/11/13 19:12:45;;;;;;;26.73;24.23;;;8.60;99.90;;;;;;10425561;28;20225;-79
2022/11/13 19:18:06;;;;;;;27.03;24.63;;;8.60;99.90;;;;;;10443292;28;20345;-80
2022/11/13 19:23:27;;;;;;;29.97;27.07;;;8.60;99.90;;;;;;10440387;28;20221;-79
2022/11/13 19:28:50;;;;;;;31.23;28.07;;;8.60;99.90;;;;;;10448110;28;20285;-80
2022/11/13 19:34:11;;;;;;;28.13;25.37;;;8.60;99.90;;;;;;10440427;28;20239;-80
2022/11/13 19:39:32;;;;;;;48.53;43.63;;;8.50;99.90;;;;;;10430550;28;20259;-79
2022/11/13 19:44:54;;;;;;;29.70;26.87;;;8.50;99.90;;;;;;10438218;28;20219;-80
2022/11/13 19:50:14;;;;;;;28.00;25.43;;;8.40;99.90;;;;;;10431758;28;20236;-81
2022/11/13 19:55:35;;;;;;;29.27;26.40;;;8.40;99.90;;;;;;10408512;28;20217;-79
2022/11/13 20:00:57;;;;;;;31.20;28.20;;;8.40;99.90;;;;;;10447128;28;20225;-81
2022/11/13 20:06:18;;;;;;;28.90;26.40;;;8.30;99.90;;;;;;10415087;28;20575;-81
2022/11/13 20:11:39;;;;;;;29.50;26.80;;;8.20;99.90;;;;;;10453751;28;20217;-82
2022/11/13 20:17:02;;;;;;;31.83;28.83;;;8.10;99.90;;;;;;10417893;28;20200;-79
2022/11/13 20:22:22;;;;;;;36.50;32.70;;;8.00;99.90;;;;;;10456899;28;20217;-80
2022/11/13 20:27:43;;;;;;;52.47;44.00;;;8.00;99.90;;;;;;10380132;28;20194;-81
2022/11/13 20:33:05;;;;;;;31.20;28.10;;;8.00;99.90;;;;;;10458394;28;20217;-81
2022/11/13 20:38:25;;;;;;;41.63;37.40;;;8.00;99.90;;;;;;10407453;28;20197;-81
2022/11/13 20:43:46;;;;;;;35.33;31.83;;;7.90;99.90;;;;;;10393037;28;20205;-79
2022/11/13 20:49:08;;;;;;;31.17;28.13;;;8.00;99.90;;;;;;10396171;28;20209;-79
2022/11/13 20:54:29;;;;;;;27.30;24.60;;;8.00;99.90;;;;;;10421589;28;20312;-79
2022/11/13 20:59:50;;;;;;;32.47;29.30;;;8.00;99.90;;;;;;10420964;28;20197;-78
2022/11/13 21:05:12;;;;;;;31.97;28.87;;;8.00;99.90;;;;;;10433070;28;20715;-81
2022/11/13 21:10:33;;;;;;;26.30;24.00;;;8.00;99.90;;;;;;10426167;28;20220;-79
2022/11/13 21:15:54;;;;;;;21.50;19.60;;;8.00;99.90;;;;;;10429968;28;20197;-79
2022/11/13 21:21:18;;;;;;;24.00;21.80;;;8.10;99.90;;;;;;10424788;28;20276;-80
2022/11/13 21:26:39;;;;;;;21.30;19.37;;;8.10;99.90;;;;;;10416667;28;20196;-83
2022/11/13 21:31:59;;;;;;;21.80;19.83;;;8.10;99.90;;;;;;10423582;28;20278;-79
2022/11/13 21:37:21;;;;;;;19.80;18.10;;;8.10;99.90;;;;;;10443726;28;20246;-79
2022/11/13 21:42:42;;;;;;;19.63;17.83;;;8.10;99.90;;;;;;10454225;28;20215;-79
2022/11/13 21:48:03;;;;;;;20.87;19.07;;;8.10;99.90;;;;;;10423130;28;20216;-79
2022/11/13 21:53:25;;;;;;;22.17;20.37;;;8.10;99.90;;;;;;10410927;28;20645;-78
2022/11/13 21:58:45;;;;;;;18.40;16.80;;;8.10;99.90;;;;;;10453500;28;20189;-78
2022/11/13 22:04:06;;;;;;;19.27;17.57;;;8.00;99.90;;;;;;10418647;28;20210;-82
2022/11/13 22:09:29;;;;;;;19.73;18.10;;;8.00;99.90;;;;;;10394308;28;20201;-80
2022/11/13 22:14:49;;;;;;;18.77;17.17;;;8.00;99.90;;;;;;10407300;28;20217;-82
2022/11/13 22:20:11;;;;;;;17.43;15.93;;;8.00;99.90;;;;;;10425787;28;20277;-82
2022/11/13 22:25:34;;;;;;;18.50;16.90;;;8.00;99.90;;;;;;10425885;28;20641;-82
2022/11/13 22:30:54;;;;;;;17.83;16.33;;;8.10;99.90;;;;;;10422875;28;20218;-82
2022/11/13 22:36:18;;;;;;;16.47;15.17;;;8.10;99.90;;;;;;10420930;28;20201;-80
2022/11/13 22:41:40;;;;;;;18.40;16.80;;;8.10;99.90;;;;;;10422429;28;20288;-82
2022/11/13 22:47:09;;;;;;;20.00;18.20;;;8.10;99.90;;;;;;10412278;28;20523;-83
2022/11/13 22:52:29;;;;;;;18.27;16.67;;;8.00;99.90;;;;;;10422390;28;20233;-81
2022/11/13 22:57:52;;;;;;;17.43;16.03;;;7.90;99.90;;;;;;10423879;28;20186;-81
2022/11/13 23:03:13;;;;;;;17.20;15.73;;;7.90;99.90;;;;;;10417559;28;20209;-79
2022/11/13 23:08:37;;;;;;;17.27;15.83;;;7.80;99.90;;;;;;10420715;28;20566;-80
2022/11/13 23:14:00;;;;;;;16.10;14.80;;;7.80;99.90;;;;;;10428068;28;20588;-80
2022/11/13 23:19:21;;;;;;;16.80;15.37;;;7.60;99.90;;;;;;10400333;28;20189;-79
2022/11/13 23:24:42;;;;;;;17.70;16.20;;;7.60;99.90;;;;;;10400141;28;20229;-80
2022/11/13 23:30:05;;;;;;;17.90;16.40;;;7.50;99.90;;;;;;10418549;28;20209;-80
2022/11/13 23:35:25;;;;;;;15.63;14.40;;;7.40;99.90;;;;;;10392268;28;20897;-81
2022/11/13 23:40:46;;;;;;;16.23;14.87;;;7.40;99.90;;;;;;10416997;28;20185;-78
2022/11/13 23:46:08;;;;;;;14.40;13.20;;;7.30;99.90;;;;;;10454500;28;20203;-80
2022/11/13 23:51:28;;;;;;;15.33;14.03;;;7.30;99.90;;;;;;10418758;28;20673;-79
2022/11/13 23:56:49;;;;;;;14.53;13.33;;;7.20;99.90;;;;;;10451171;28;20190;-78
